createdAt,value
2023-02-01T00:00:28.821Z,4.10
2023-02-01T00:02:55.424Z,4.10
2023-02-01T00:05:22.223Z,4.20
2023-02-01T00:07:50.041Z,4.10
2023-02-01T00:10:17.213Z,4.00
2023-02-01T00:12:44.330Z,4.00
2023-02-01T00:15:11.303Z,3.90
2023-02-01T00:17:37.939Z,3.80
2023-02-01T00:20:05.004Z,3.80
2023-02-01T00:22:31.558Z,3.80
2023-02-01T00:24:58.182Z,3.80
2023-02-01T00:27:24.781Z,3.80
2023-02-01T00:29:51.395Z,3.80
2023-02-01T00:32:18.018Z,3.80
2023-02-01T00:34:44.657Z,3.90
2023-02-01T00:37:11.240Z,4.00
2023-02-01T00:39:37.805Z,4.00
2023-02-01T00:42:04.765Z,4.00
2023-02-01T00:44:34.244Z,4.00
2023-02-01T00:47:01.508Z,4.00
2023-02-01T00:49:29.343Z,3.70
2023-02-01T00:51:55.996Z,3.90
2023-02-01T00:54:22.705Z,3.90
2023-02-01T00:56:49.283Z,4.00
2023-02-01T00:59:15.980Z,4.00
2023-02-01T01:01:42.686Z,4.00
2023-02-01T01:04:09.368Z,4.10
2023-02-01T01:06:36.065Z,4.10
2023-02-01T01:09:05.245Z,4.10
2023-02-01T01:11:35.043Z,4.10
2023-02-01T01:14:02.190Z,4.00
2023-02-01T01:16:31.178Z,4.00
2023-02-01T01:18:58.413Z,3.90
2023-02-01T01:21:25.962Z,3.90
2023-02-01T01:23:52.743Z,3.90
2023-02-01T01:26:22.275Z,3.60
2023-02-01T01:28:48.941Z,3.80
2023-02-01T01:31:17.008Z,3.80
2023-02-01T01:33:44.862Z,3.70
2023-02-01T01:36:12.477Z,3.80
2023-02-01T01:38:42.650Z,3.80
2023-02-01T01:41:14.733Z,3.90
2023-02-01T01:43:54.418Z,3.80
2023-02-01T01:46:26.544Z,3.80
2023-02-01T01:49:11.378Z,3.80
2023-02-01T01:51:42.907Z,3.80
2023-02-01T01:54:19.340Z,3.80
2023-02-01T01:56:51.915Z,3.80
2023-02-01T01:59:18.879Z,3.80
2023-02-01T02:01:46.881Z,3.80
2023-02-01T02:04:13.752Z,3.90
2023-02-01T02:06:48.929Z,3.90
2023-02-01T02:09:16.766Z,4.00
2023-02-01T02:11:43.630Z,3.90
2023-02-01T02:14:13.880Z,4.00
2023-02-01T02:16:58.416Z,4.00
2023-02-01T02:20:10.427Z,4.40
2023-02-01T02:22:47.799Z,4.00
2023-02-01T02:25:23.165Z,3.00
2023-02-01T02:28:10.612Z,4.00
2023-02-01T02:31:24.534Z,4.00
2023-02-01T02:34:16.743Z,4.00
2023-02-01T02:37:12.908Z,4.00
2023-02-01T02:40:01.056Z,4.10
2023-02-01T02:43:29.034Z,4.10
2023-02-01T02:46:21.150Z,4.10
2023-02-01T02:48:55.180Z,4.10
2023-02-01T02:52:01.141Z,4.10
2023-02-01T02:54:48.345Z,4.10
2023-02-01T02:57:47.635Z,4.10
2023-02-01T03:00:37.041Z,4.10
2023-02-01T03:03:22.840Z,4.10
2023-02-01T03:05:53.868Z,4.10
2023-02-01T03:08:31.927Z,4.10
2023-02-01T03:11:17.021Z,4.10
2023-02-01T03:14:03.673Z,3.70
2023-02-01T03:16:34.711Z,4.10
2023-02-01T03:19:10.480Z,4.10
2023-02-01T03:21:41.816Z,4.10
2023-02-01T03:24:35.183Z,4.10
2023-02-01T03:27:15.952Z,4.10
2023-02-01T03:29:50.427Z,4.10
2023-02-01T03:32:18.357Z,4.10
2023-02-01T03:34:45.723Z,4.10
2023-02-01T03:37:17.089Z,4.10
2023-02-01T03:39:54.309Z,4.10
2023-02-01T03:42:32.052Z,4.10
2023-02-01T03:45:14.282Z,4.20
2023-02-01T03:47:45.732Z,4.20
2023-02-01T03:50:17.419Z,4.10
2023-02-01T03:52:52.137Z,4.10
2023-02-01T03:55:23.684Z,4.20
2023-02-01T03:57:59.680Z,4.20
2023-02-01T04:00:27.314Z,4.20
2023-02-01T04:02:54.725Z,4.20
2023-02-01T04:05:22.367Z,4.20
2023-02-01T04:07:48.956Z,4.20
2023-02-01T04:10:19.335Z,4.20
2023-02-01T04:12:46.250Z,4.30
2023-02-01T04:15:12.863Z,4.30
2023-02-01T04:17:39.504Z,4.30
2023-02-01T04:20:06.451Z,4.40
2023-02-01T04:22:33.194Z,4.40
2023-02-01T04:24:59.739Z,4.40
2023-02-01T04:27:26.511Z,4.40
2023-02-01T04:29:53.147Z,4.50
2023-02-01T04:32:20.790Z,4.50
2023-02-01T04:34:47.503Z,4.50
2023-02-01T04:37:14.111Z,4.20
2023-02-01T04:39:40.685Z,4.60
2023-02-01T04:42:07.274Z,4.60
2023-02-01T04:44:33.848Z,4.50
2023-02-01T04:47:00.451Z,4.70
2023-02-01T04:49:27.793Z,4.70
2023-02-01T04:51:54.416Z,4.70
2023-02-01T04:54:21.090Z,4.70
2023-02-01T04:56:47.789Z,4.80
2023-02-01T04:59:14.396Z,4.80
2023-02-01T05:01:41.082Z,4.80
2023-02-01T05:04:07.755Z,4.80
2023-02-01T05:06:34.473Z,4.80
2023-02-01T05:09:01.035Z,4.70
2023-02-01T05:11:46.271Z,4.80
2023-02-01T05:14:12.960Z,4.90
2023-02-01T05:16:39.575Z,4.90
2023-02-01T05:19:06.213Z,4.90
2023-02-01T05:21:32.815Z,4.90
2023-02-01T05:24:13.727Z,4.90
2023-02-01T05:26:44.070Z,4.60
2023-02-01T05:29:11.122Z,4.90
2023-02-01T05:31:37.887Z,5.00
2023-02-01T05:34:05.752Z,5.00
2023-02-01T05:36:32.747Z,4.90
2023-02-01T05:38:59.485Z,5.00
2023-02-01T05:41:26.170Z,5.00
2023-02-01T05:43:52.750Z,5.00
2023-02-01T05:46:19.497Z,5.00
2023-02-01T05:48:46.220Z,5.00
2023-02-01T05:51:12.977Z,5.00
2023-02-01T05:53:39.733Z,5.00
2023-02-01T05:56:06.767Z,5.10
2023-02-01T05:58:33.427Z,5.10
2023-02-01T06:01:01.492Z,5.10
2023-02-01T06:03:28.418Z,5.10
2023-02-01T06:05:55.119Z,5.10
2023-02-01T06:08:22.003Z,5.10
2023-02-01T06:10:48.628Z,5.10
2023-02-01T06:13:15.167Z,5.10
2023-02-01T06:15:43.362Z,5.10
2023-02-01T06:18:10.031Z,5.00
2023-02-01T06:20:36.632Z,5.10
2023-02-01T06:23:03.189Z,5.00
2023-02-01T06:25:29.765Z,5.00
2023-02-01T06:27:56.320Z,4.90
2023-02-01T06:30:23.186Z,4.90
2023-02-01T06:32:55.222Z,4.90
2023-02-01T06:35:21.881Z,4.90
2023-02-01T06:37:48.481Z,4.80
2023-02-01T06:40:15.289Z,4.80
2023-02-01T06:42:41.879Z,4.80
2023-02-01T06:45:09.016Z,4.80
2023-02-01T06:47:35.673Z,4.70
2023-02-01T06:50:02.519Z,4.70
2023-02-01T06:52:29.088Z,4.70
2023-02-01T06:54:56.707Z,4.70
2023-02-01T06:57:23.286Z,4.60
2023-02-01T06:59:50.036Z,4.50
2023-02-01T07:02:16.628Z,4.70
2023-02-01T07:04:43.278Z,4.80
2023-02-01T07:07:09.868Z,4.80
2023-02-01T07:09:36.453Z,4.80
2023-02-01T07:12:03.122Z,4.70
2023-02-01T07:14:29.748Z,4.80
2023-02-01T07:16:56.347Z,4.90
2023-02-01T07:19:22.894Z,5.00
2023-02-01T07:21:49.443Z,4.80
2023-02-01T07:24:16.018Z,4.80
2023-02-01T07:26:42.616Z,4.80
2023-02-01T07:29:09.263Z,4.70
2023-02-01T07:31:36.226Z,4.70
2023-02-01T07:34:03.505Z,4.70
2023-02-01T07:36:30.122Z,4.70
2023-02-01T07:38:57.056Z,4.70
2023-02-01T07:41:23.768Z,4.70
2023-02-01T07:43:53.643Z,4.80
2023-02-01T07:46:20.312Z,4.80
2023-02-01T07:48:47.052Z,4.80
2023-02-01T07:51:15.661Z,4.80
2023-02-01T07:53:43.095Z,4.70
2023-02-01T07:56:21.296Z,4.70
2023-02-01T07:58:51.793Z,4.60
2023-02-01T08:01:25.439Z,4.50
2023-02-01T08:04:01.034Z,4.40
2023-02-01T08:06:29.187Z,4.20
2023-02-01T08:08:55.949Z,4.20
2023-02-01T08:11:23.672Z,4.00
2023-02-01T08:13:51.119Z,3.90
2023-02-01T08:16:19.442Z,3.80
2023-02-01T08:18:46.365Z,3.80
2023-02-01T08:21:25.346Z,3.70
2023-02-01T08:23:52.253Z,3.70
2023-02-01T08:26:22.061Z,3.70
2023-02-01T08:28:55.622Z,3.70
2023-02-01T08:31:24.175Z,3.70
2023-02-01T08:33:53.646Z,3.70
2023-02-01T08:36:21.154Z,3.80
2023-02-01T08:38:48.093Z,3.80
2023-02-01T08:41:18.999Z,3.70
2023-02-01T08:43:46.388Z,3.70
2023-02-01T08:46:13.487Z,3.40
2023-02-01T08:48:40.608Z,3.70
2023-02-01T08:51:11.106Z,3.70
2023-02-01T08:53:39.274Z,3.70
2023-02-01T08:56:06.410Z,3.70
2023-02-01T08:58:32.959Z,3.70
2023-02-01T09:01:05.468Z,3.40
2023-02-01T09:03:32.158Z,3.70
2023-02-01T09:06:07.107Z,3.70
2023-02-01T09:08:34.699Z,3.60
2023-02-01T09:11:06.463Z,3.50
2023-02-01T09:13:34.695Z,3.70
2023-02-01T09:16:01.489Z,3.70
2023-02-01T09:18:28.148Z,3.70
2023-02-01T09:20:54.784Z,3.80
2023-02-01T09:23:21.420Z,3.90
2023-02-01T09:25:51.399Z,3.90
2023-02-01T09:28:18.740Z,3.80
2023-02-01T09:30:45.571Z,4.00
2023-02-01T09:33:12.297Z,4.00
2023-02-01T09:35:39.127Z,4.50
2023-02-01T09:38:05.754Z,4.10
2023-02-01T09:40:35.189Z,4.10
2023-02-01T09:43:26.090Z,4.20
2023-02-01T09:46:20.897Z,4.20
2023-02-01T09:48:49.959Z,4.20
2023-02-01T09:51:31.372Z,4.20
2023-02-01T09:54:20.010Z,4.20
2023-02-01T09:56:54.802Z,4.20
2023-02-01T09:59:33.133Z,4.20
2023-02-01T10:02:01.937Z,4.20
2023-02-01T10:04:29.226Z,4.20
2023-02-01T10:07:38.432Z,4.30
2023-02-01T10:10:16.079Z,4.30
2023-02-01T10:13:04.618Z,4.30
2023-02-01T10:15:46.790Z,4.20
2023-02-01T10:18:52.700Z,3.80
2023-02-01T10:21:52.503Z,4.10
2023-02-01T10:24:38.958Z,4.10
2023-02-01T10:27:21.473Z,4.10
2023-02-01T10:30:00.623Z,4.10
2023-02-01T10:32:32.596Z,4.10
2023-02-01T10:35:02.129Z,4.10
2023-02-01T10:37:32.870Z,4.20
2023-02-01T10:40:26.858Z,4.20
2023-02-01T10:43:03.625Z,4.30
2023-02-01T10:45:33.178Z,4.40
2023-02-01T10:48:01.618Z,4.50
2023-02-01T10:50:49.503Z,4.50
2023-02-01T10:53:24.976Z,4.50
2023-02-01T10:55:55.137Z,4.40
2023-02-01T10:58:32.659Z,4.40
2023-02-01T11:01:06.284Z,4.30
2023-02-01T11:03:52.612Z,4.30
2023-02-01T11:06:31.058Z,4.20
2023-02-01T11:09:00.809Z,4.20
2023-02-01T11:11:27.556Z,4.20
2023-02-01T11:14:11.465Z,4.20
2023-02-01T11:16:39.766Z,4.30
2023-02-01T11:19:07.474Z,4.30
2023-02-01T11:21:35.177Z,4.40
2023-02-01T11:24:07.815Z,4.40
2023-02-01T11:26:34.590Z,4.50
2023-02-01T11:29:10.203Z,4.60
2023-02-01T11:31:37.179Z,4.60
2023-02-01T11:34:17.078Z,4.80
2023-02-01T11:36:47.312Z,5.00
2023-02-01T11:39:13.865Z,5.10
2023-02-01T11:41:47.530Z,5.00
2023-02-01T11:44:40.634Z,5.20
2023-02-01T11:47:25.081Z,5.30
2023-02-01T11:49:56.944Z,5.20
2023-02-01T11:52:30.804Z,5.20
2023-02-01T11:55:13.810Z,5.30
2023-02-01T11:57:56.561Z,5.30
2023-02-01T12:00:46.031Z,5.30
2023-02-01T12:03:39.915Z,5.40
2023-02-01T12:06:31.081Z,5.50
2023-02-01T12:09:16.930Z,5.60
2023-02-01T12:12:22.560Z,5.70
2023-02-01T12:15:09.916Z,5.90
2023-02-01T12:17:56.920Z,6.00
2023-02-01T12:20:53.601Z,6.00
2023-02-01T12:23:38.601Z,6.00
2023-02-01T12:26:24.019Z,6.00
2023-02-01T12:29:14.747Z,6.10
2023-02-01T12:31:54.794Z,6.10
2023-02-01T12:34:46.432Z,6.00
2023-02-01T12:37:27.769Z,6.00
2023-02-01T12:40:23.371Z,6.00
2023-02-01T12:43:02.520Z,5.90
2023-02-01T12:45:39.976Z,5.80
2023-02-01T12:48:19.472Z,5.80
2023-02-01T12:50:54.759Z,5.80
2023-02-01T12:53:28.979Z,6.00
2023-02-01T12:56:04.236Z,5.80
2023-02-01T12:58:42.615Z,5.80
2023-02-01T13:01:33.055Z,5.80
2023-02-01T13:04:47.499Z,5.90
2023-02-01T13:07:20.086Z,5.50
2023-02-01T13:10:02.823Z,5.90
2023-02-01T13:12:37.018Z,6.00
2023-02-01T13:15:17.175Z,6.00
2023-02-01T13:17:47.060Z,6.10
2023-02-01T13:20:23.583Z,5.90
2023-02-01T13:23:34.636Z,5.50
2023-02-01T13:26:01.501Z,5.20
2023-02-01T13:28:48.017Z,5.00
2023-02-01T13:31:33.250Z,4.90
2023-02-01T13:34:39.116Z,5.30
2023-02-01T13:37:47.829Z,4.90
2023-02-01T13:40:45.177Z,5.00
2023-02-01T13:43:24.600Z,5.20
2023-02-01T13:45:54.912Z,5.40
2023-02-01T13:48:44.980Z,5.60
2023-02-01T13:51:12.939Z,5.70
2023-02-01T13:53:47.028Z,5.80
2023-02-01T13:56:20.460Z,5.90
2023-02-01T13:58:49.095Z,5.90
2023-02-01T14:01:21.810Z,6.00
2023-02-01T14:03:55.624Z,6.70
2023-02-01T14:06:28.404Z,6.00
2023-02-01T14:09:20.479Z,6.10
2023-02-01T14:11:54.535Z,6.10
2023-02-01T14:14:24.477Z,6.10
2023-02-01T14:16:54.069Z,6.10
2023-02-01T14:19:34.939Z,6.00
2023-02-01T14:22:21.425Z,5.80
2023-02-01T14:24:54.935Z,5.50
2023-02-01T14:27:28.051Z,5.50
2023-02-01T14:30:00.422Z,5.40
2023-02-01T14:32:34.695Z,5.40
2023-02-01T14:35:07.377Z,5.30
2023-02-01T14:37:36.880Z,5.40
2023-02-01T14:40:16.647Z,5.40
2023-02-01T14:42:43.137Z,5.40
2023-02-01T14:45:25.940Z,5.40
2023-02-01T14:48:15.655Z,5.50
2023-02-01T14:50:48.329Z,5.50
2023-02-01T14:53:24.516Z,5.60
2023-02-01T14:56:02.464Z,5.60
2023-02-01T14:58:52.208Z,5.70
2023-02-01T15:01:31.663Z,5.70
2023-02-01T15:04:10.543Z,5.70
2023-02-01T15:06:53.130Z,5.70
2023-02-01T15:09:35.631Z,5.70
2023-02-01T15:12:28.580Z,5.70
2023-02-01T15:15:18.145Z,5.70
2023-02-01T15:17:57.079Z,5.70
2023-02-01T15:20:32.164Z,5.50
2023-02-01T15:23:03.555Z,5.30
2023-02-01T15:25:37.635Z,5.20
2023-02-01T15:28:06.858Z,5.10
2023-02-01T15:30:35.748Z,4.90
2023-02-01T15:33:17.488Z,4.80
2023-02-01T15:35:48.549Z,4.70
2023-02-01T15:38:28.171Z,4.60
2023-02-01T15:41:16.438Z,4.50
2023-02-01T15:44:05.800Z,4.40
2023-02-01T15:46:37.077Z,4.40
2023-02-01T15:49:04.515Z,4.30
2023-02-01T15:51:33.662Z,4.10
2023-02-01T15:54:08.506Z,4.00
2023-02-01T15:56:38.920Z,4.00
2023-02-01T15:59:14.493Z,4.00
2023-02-01T16:01:43.162Z,3.80
2023-02-01T16:04:22.161Z,3.70
2023-02-01T16:06:54.733Z,3.50
2023-02-01T16:09:24.703Z,3.30
2023-02-01T16:12:00.211Z,3.10
2023-02-01T16:14:27.189Z,2.90
2023-02-01T16:16:56.152Z,2.80
2023-02-01T16:19:25.037Z,2.60
2023-02-01T16:21:51.962Z,2.70
2023-02-01T16:24:18.601Z,2.70
2023-02-01T16:26:45.243Z,2.70
2023-02-01T16:29:11.906Z,2.60
2023-02-01T16:31:40.621Z,2.60
2023-02-01T16:34:11.847Z,2.60
2023-02-01T16:36:38.453Z,2.60
2023-02-01T16:39:05.170Z,2.70
2023-02-01T16:41:31.783Z,2.70
2023-02-01T16:43:58.392Z,2.70
2023-02-01T16:46:27.137Z,2.70
2023-02-01T16:49:01.447Z,2.60
2023-02-01T16:51:33.005Z,2.70
2023-02-01T16:54:00.866Z,2.70
2023-02-01T16:56:32.037Z,2.70
2023-02-01T16:58:58.928Z,2.70
2023-02-01T17:01:25.854Z,2.80
2023-02-01T17:03:52.816Z,2.80
2023-02-01T17:06:22.586Z,2.90
2023-02-01T17:08:53.317Z,2.90
2023-02-01T17:11:19.957Z,2.90
2023-02-01T17:13:46.849Z,2.90
2023-02-01T17:16:19.401Z,2.90
2023-02-01T17:18:59.269Z,3.00
2023-02-01T17:21:29.091Z,3.00
2023-02-01T17:23:56.139Z,3.10
2023-02-01T17:26:22.826Z,3.10
2023-02-01T17:28:49.563Z,3.10
2023-02-01T17:31:17.368Z,3.10
2023-02-01T17:33:45.097Z,3.20
2023-02-01T17:36:15.894Z,3.20
2023-02-01T17:38:45.619Z,3.20
2023-02-01T17:41:14.662Z,3.20
2023-02-01T17:43:41.553Z,3.30
2023-02-01T17:46:16.842Z,3.30
2023-02-01T17:48:43.450Z,3.30
2023-02-01T17:51:19.455Z,3.40
2023-02-01T17:53:46.781Z,3.40
2023-02-01T17:56:15.683Z,3.40
2023-02-01T17:58:42.569Z,3.50
2023-02-01T18:01:22.233Z,3.50
2023-02-01T18:03:49.245Z,3.50
2023-02-01T18:06:18.408Z,3.50
2023-02-01T18:08:45.820Z,3.60
2023-02-01T18:11:15.449Z,3.60
2023-02-01T18:13:42.883Z,3.70
2023-02-01T18:16:21.615Z,3.70
2023-02-01T18:18:48.744Z,3.70
2023-02-01T18:21:19.791Z,3.80
2023-02-01T18:23:46.614Z,3.80
2023-02-01T18:26:18.413Z,3.80
2023-02-01T18:28:45.499Z,3.80
2023-02-01T18:31:24.399Z,3.70
2023-02-01T18:33:52.387Z,3.80
2023-02-01T18:36:19.409Z,3.80
2023-02-01T18:38:46.033Z,3.80
2023-02-01T18:41:21.653Z,3.50
2023-02-01T18:43:49.520Z,3.80
2023-02-01T18:46:16.922Z,3.90
2023-02-01T18:48:44.324Z,3.90
2023-02-01T18:51:13.152Z,3.90
2023-02-01T18:53:40.140Z,3.90
2023-02-01T18:56:07.831Z,4.00
2023-02-01T18:58:34.433Z,4.00
2023-02-01T19:01:06.874Z,3.90
2023-02-01T19:03:33.457Z,4.30
2023-02-01T19:06:08.051Z,4.00
2023-02-01T19:08:35.067Z,4.00
2023-02-01T19:11:06.050Z,4.00
2023-02-01T19:13:32.617Z,4.00
2023-02-01T19:15:59.699Z,4.10
2023-02-01T19:18:26.517Z,4.20
2023-02-01T19:20:54.904Z,4.10
2023-02-01T19:23:22.240Z,4.10
2023-02-01T19:25:49.033Z,4.10
2023-02-01T19:28:16.441Z,4.10
2023-02-01T19:30:44.884Z,4.00
2023-02-01T19:33:12.283Z,4.10
2023-02-01T19:35:39.054Z,4.10
2023-02-01T19:38:06.166Z,4.10
2023-02-01T19:40:32.964Z,3.90
2023-02-01T19:42:59.846Z,4.10
2023-02-01T19:45:26.660Z,4.10
2023-02-01T19:47:53.454Z,4.20
2023-02-01T19:50:21.776Z,4.20
2023-02-01T19:52:49.129Z,4.20
2023-02-01T19:55:15.903Z,4.20
2023-02-01T19:57:43.796Z,4.20
2023-02-01T20:00:13.356Z,4.20
2023-02-01T20:02:40.259Z,4.20
2023-02-01T20:05:10.551Z,4.20
2023-02-01T20:07:37.397Z,4.20
2023-02-01T20:10:05.987Z,4.20
2023-02-01T20:12:32.859Z,4.10
2023-02-01T20:14:59.488Z,4.60
2023-02-01T20:17:26.216Z,4.10
2023-02-01T20:19:52.795Z,4.20
2023-02-01T20:22:19.558Z,4.40
2023-02-01T20:24:46.279Z,4.20
2023-02-01T20:27:13.753Z,4.20
2023-02-01T20:29:43.727Z,4.20
2023-02-01T20:32:10.934Z,4.20
2023-02-01T20:34:37.551Z,4.30
2023-02-01T20:37:04.185Z,4.30
2023-02-01T20:39:30.750Z,4.30
2023-02-01T20:41:57.458Z,3.90
2023-02-01T20:44:24.065Z,4.20
2023-02-01T20:46:50.632Z,4.20
2023-02-01T20:49:17.323Z,4.20
2023-02-01T20:51:43.929Z,4.20
2023-02-01T20:54:10.545Z,4.20
2023-02-01T20:56:39.281Z,4.20
2023-02-01T20:59:10.551Z,4.20
2023-02-01T21:01:37.806Z,4.10
2023-02-01T21:04:04.540Z,3.90
2023-02-01T21:06:31.445Z,4.10
2023-02-01T21:08:58.023Z,4.10
2023-02-01T21:11:24.595Z,4.10
2023-02-01T21:13:51.379Z,4.10
2023-02-01T21:16:21.199Z,3.80
2023-02-01T21:18:52.165Z,3.90
2023-02-01T21:21:19.290Z,3.90
2023-02-01T21:23:46.160Z,3.90
2023-02-01T21:26:14.203Z,3.80
2023-02-01T21:28:41.279Z,3.90
2023-02-01T21:31:08.460Z,3.90
2023-02-01T21:33:35.133Z,3.90
2023-02-01T21:36:03.353Z,3.80
2023-02-01T21:38:30.319Z,3.80
2023-02-01T21:41:16.649Z,3.80
2023-02-01T21:43:44.100Z,3.80
2023-02-01T21:46:10.823Z,3.70
2023-02-01T21:49:05.273Z,3.70
2023-02-01T21:51:28.138Z,3.70
2023-02-01T21:53:55.035Z,3.50
2023-02-01T21:56:21.675Z,3.60
2023-02-01T21:58:48.228Z,3.60
2023-02-01T22:01:14.875Z,3.60
2023-02-01T22:03:41.535Z,3.60
2023-02-01T22:06:08.140Z,3.60
2023-02-01T22:08:37.539Z,3.50
2023-02-01T22:11:05.137Z,3.60
2023-02-01T22:13:31.704Z,3.60
2023-02-01T22:15:58.711Z,3.70
2023-02-01T22:18:25.304Z,3.70
2023-02-01T22:21:03.304Z,3.70
2023-02-01T22:23:29.895Z,3.70
2023-02-01T22:26:04.487Z,3.80
2023-02-01T22:28:33.771Z,3.80
2023-02-01T22:31:04.552Z,3.90
2023-02-01T22:33:31.308Z,3.90
2023-02-01T22:35:58.164Z,4.00
2023-02-01T22:38:25.221Z,4.00
2023-02-01T22:40:59.676Z,4.00
2023-02-01T22:43:27.049Z,4.00
2023-02-01T22:45:54.231Z,4.00
2023-02-01T22:48:21.305Z,4.00
2023-02-01T22:50:47.879Z,3.80
2023-02-01T22:53:14.415Z,4.00
2023-02-01T22:55:42.341Z,4.00
2023-02-01T22:58:09.183Z,4.00
2023-02-01T23:00:35.733Z,4.00
2023-02-01T23:03:02.325Z,4.00
2023-02-01T23:05:29.054Z,4.10
2023-02-01T23:07:55.630Z,4.10
2023-02-01T23:10:22.309Z,4.10
2023-02-01T23:12:49.213Z,4.10
2023-02-01T23:15:16.409Z,4.10
2023-02-01T23:17:44.364Z,4.10
2023-02-01T23:20:16.846Z,4.10
2023-02-01T23:22:44.956Z,4.10
2023-02-01T23:25:12.818Z,4.10
2023-02-01T23:27:39.999Z,4.00
2023-02-01T23:30:07.991Z,4.10
2023-02-01T23:32:35.827Z,4.00
2023-02-01T23:35:04.078Z,4.00
2023-02-01T23:37:30.748Z,4.00
2023-02-01T23:39:57.382Z,4.00
2023-02-01T23:42:24.036Z,4.00
2023-02-01T23:44:50.617Z,3.90
2023-02-01T23:47:17.188Z,4.00
2023-02-01T23:49:45.583Z,4.00
2023-02-01T23:52:12.426Z,4.00
2023-02-01T23:54:39.210Z,4.10
2023-02-01T23:57:05.938Z,4.10
2023-02-01T23:59:32.576Z,4.20
